Airfield :
LOGIN :

Register | Disclaimer

   EN    FR    IT 

 










Legend :    VFR   Marginal VFR   IFR   Intensive IFR   Very Intensive IFR
Visi :
Ceiling :
>= 8 km
>= 3000ft
5 to 8 km
1000 to 3000 ft
1500m to 5 km
500 to 1000 ft
800 to 1500m
200 to 500 ft
< 800m
< 200 ft
Symbols :   Thunderstorms  Fog  Heavy snow  Heavy precipitations  Wind > 20 kt
SIGMETs :     Misc.  Thunderstorms  Icing  Turbulence  Mountain Waves  Volcanic Ashes






- Airport Elevation : 3 ft
- IATA code : DHR


EHKD - Den Helder De Kooy

CURRENT METAR :
  • 241511Z AUTO 23025KT 200V260 5000 -RADZ BKN007 BKN008 BKN010 BKN015CB 09/08 Q1000 GRN 20027G37KT 8000 SCT007 OVC010 TEMPO 4000 DZRA SCT004 BKN006

EXPIRED METARs :
  • 241457Z AUTO 23024KT 5000 -RADZ BKN006 BKN007 BKN009 BKN015CB 09/09 Q1000 YLO 20027G37KT 8000 SCT007 OVC010 TEMPO 4000 DZRA SCT004 BKN006
  • 241455Z AUTO 23024KT 200V260 5000 -RA SCT006 BKN007 BKN009 BKN015CB 09/09 Q1000 RERA REDZ YLO 20027G37KT 8000 SCT007 OVC010 TEMPO 4000 DZRA SCT004 BKN006
  • 241440Z AUTO 23025G35KT 5000 -SHRA BKN006 BKN009 BKN010 BKN015CB 09/09 Q1000 YLO 20027G37KT 8000 SCT007 OVC010 TEMPO 4000 DZRA SCT004 BKN006
  • 241427Z AUTO 23026G36KT 4800 +DZ FEW006 BKN007 BKN008 SCT015CB 09/09 Q1001 GRN 20027G37KT 8000 SCT007 OVC010 TEMPO 4000 DZRA SCT004 BKN006
  • 241407Z AUTO 23026G37KT 4100 +DZ SCT005 BKN006 BKN009 SCT015CB 09/09 Q1001 YLO 20025G35KT 8000 SCT007 OVC010 TEMPO 4500 DZRA SCT004 BKN006
  • 241355Z AUTO 23024G35KT 3900 +DZ FEW005 BKN006 BKN009 FEW015CB 09/09 Q1001 YLO 20025G35KT 8000 SCT007 OVC010 TEMPO 4500 DZRA SCT004 BKN006
  • 241334Z AUTO 22025KT 3400 R21/P3000N -RA SCT005 BKN006 BKN009 SCT015CB 09/09 Q1002 YLO 20025G35KT 8000 SCT007 OVC010 TEMPO 4500 DZRA SCT004 BKN006
  • 241327Z AUTO 22025KT 4700 +DZRA SCT005 BKN006 BKN009 SCT015CB 09/09 Q1002 YLO 20025G35KT 8000 SCT007 OVC010 TEMPO 4500 DZRA SCT004 BKN006
  • 241303Z AUTO 21023G35KT 5000 -RA SCT004 BKN006 BKN008 BKN015CB 09/08 Q1003 YLO 20025G35KT 8000 SCT007 OVC010 TEMPO 4500 DZRA SCT004 BKN006
  • 241255Z AUTO 21024KT 5000 -SHRA BKN004 BKN006 BKN015CB 09/08 Q1003 YLO 20025G35KT 8000 DZRA SCT007 OVC010 TEMPO 4500 SCT004 BKN006
  • 241243Z AUTO 20023KT 170V230 4300 -SHRA BKN005 BKN006 BKN015CB 08/08 Q1004 YLO 18020G30KT 8000 DZRA SCT007 OVC010 TEMPO 4500 SCT004 BKN006

TAF TAF EHKD
Valid from the 24 at 14:00 until the 25 at 02:00 UTC


241343Z 2414/2502 23025G42KT 9999 SCT010 BKN012
TEMPO 2414/2416 4000 RADZ SCT006 BKN008
PROB40
TEMPO 2414/2416 2500 DZRA SCT004 BKN007
PROB40
TEMPO 2416/2419 4000 -DZ SCT007 BKN014
BECMG 2419/2421 SCT015 BKN020
BECMG 2421/2423 27020G38KT SCT020



MET'MAP, your aeronautical weather chart ! - Copyright ORBIFLY December 2007 - Disclaimer

ORBIFLY MET'MAP TEAM :

Programming & Development : Alexandra Zaïnal
Concept & original design : Baudouin d'Aumeries
Assistance for programming : Marc-Olivier Méhu
Technical & hardware support : Manuel Goepfert

Contact : metmap@orbifly.com




SOURCES & CREDITS :

   NOAA